首页
METAR-TAF:

METAR-TAF

机场 :

特尔古穆列什, 罗马尼亚

纬度: 46-32N, 经度: 024-32E, 海拔: 308米

当前天气观测

该预报发布于21分钟前的08:30 UTC
风速1节,风向多变
温度 23°C
湿度 65%
气压 1020 hPa
能见度10公里或以上
1500米以下无云,无积雨云

METAR: LRTM 190830Z VRB01KT CAVOK 23/16 Q1020

时间: 11:51 (08:51 UTC)

预报

该预报发布于51分钟前的08:00 UTC
预报有效从19日的 09点(UTC)到 19日的 18点(UTC)
风速4节,风向多变
能见度10公里或以上
1500米以下无云,无积雨云

TAF: LRTM 190800Z 1909/1918 VRB04KT CAVOK

超过4000个机场的气象观测和天气预报(METAR&TAF报告)。

可查询的气象台以黄色和红色小点在地图上表示。

将鼠标移到小点上方,可查看气象台名称。

然后点击查看天气观测和预报。

如需切换地图:点击带黑十字的绿色按钮放大地图;点击带横线的绿色按钮缩小地图;或者点击绿色箭头查看邻近地区的地图。


METAR-TAF: